createdAt,value
2019-04-30T00:00:45.453Z,1016.17
2019-04-30T00:01:43.117Z,1016.16
2019-04-30T00:02:43.098Z,1016.15
2019-04-30T00:03:43.123Z,1016.10
2019-04-30T00:04:43.077Z,1016.11
2019-04-30T00:05:44.989Z,1016.08
2019-04-30T00:06:43.065Z,1016.12
2019-04-30T00:07:43.053Z,1016.11
2019-04-30T00:08:45.056Z,1016.07
2019-04-30T00:09:44.854Z,1016.10
2019-04-30T00:10:43.018Z,1016.09
2019-04-30T00:11:43.027Z,1016.11
2019-04-30T00:12:42.982Z,1016.11
2019-04-30T00:13:43.004Z,1016.08
2019-04-30T00:14:44.814Z,1016.02
2019-04-30T00:15:42.954Z,1016.05
2019-04-30T00:16:42.944Z,1016.07
2019-04-30T00:17:42.930Z,1016.05
2019-04-30T00:18:55.179Z,1016.03
2019-04-30T00:19:45.480Z,1016.03
2019-04-30T00:20:45.290Z,1016.06
2019-04-30T00:21:42.899Z,1016.05
2019-04-30T00:22:47.026Z,1016.02
2019-04-30T00:23:45.798Z,1016.02
2019-04-30T00:24:46.846Z,1016.01
2019-04-30T00:25:45.586Z,1016.03
2019-04-30T00:26:46.696Z,1016.00
2019-04-30T00:27:45.595Z,1016.00
2019-04-30T00:28:46.223Z,1016.02
2019-04-30T00:29:42.821Z,1015.99
2019-04-30T00:30:43.883Z,1015.98
2019-04-30T00:31:42.776Z,1016.00
2019-04-30T00:32:43.616Z,1015.96
2019-04-30T00:33:42.758Z,1015.97
2019-04-30T00:34:42.778Z,1015.93
2019-04-30T00:35:42.733Z,1015.96
2019-04-30T00:36:42.721Z,1015.95
2019-04-30T00:37:42.725Z,1015.97
2019-04-30T00:38:42.709Z,1015.98
2019-04-30T00:39:44.343Z,1015.94
2019-04-30T00:40:45.013Z,1015.94
2019-04-30T00:41:44.048Z,1015.91
2019-04-30T00:42:42.664Z,1015.86
2019-04-30T00:43:49.304Z,1015.83
2019-04-30T00:44:45.560Z,1015.82
2019-04-30T00:45:44.878Z,1015.85
2019-04-30T00:46:42.608Z,1015.80
2019-04-30T00:47:44.526Z,1015.81
2019-04-30T00:48:45.498Z,1015.82
2019-04-30T00:49:42.606Z,1015.84
2019-04-30T00:50:42.560Z,1015.84
2019-04-30T00:51:42.551Z,1015.83
2019-04-30T00:52:42.537Z,1015.80
2019-04-30T00:53:43.787Z,1015.86
2019-04-30T00:54:45.236Z,1015.84
2019-04-30T00:55:46.768Z,1015.85
2019-04-30T00:56:45.491Z,1015.85
2019-04-30T00:57:44.541Z,1015.90
2019-04-30T00:58:42.482Z,1015.83
2019-04-30T00:59:46.568Z,1015.84
2019-04-30T01:00:45.185Z,1015.86
2019-04-30T01:01:43.480Z,1015.83
2019-04-30T01:02:43.430Z,1015.82
2019-04-30T01:03:46.366Z,1015.81
2019-04-30T01:04:44.977Z,1015.82
2019-04-30T01:05:46.464Z,1015.79
2019-04-30T01:06:43.377Z,1015.81
2019-04-30T01:07:48.823Z,1015.78
2019-04-30T01:08:43.369Z,1015.78
2019-04-30T01:09:46.491Z,1015.80
2019-04-30T01:10:43.374Z,1015.77
2019-04-30T01:11:44.783Z,1015.72
2019-04-30T01:12:47.234Z,1015.76
2019-04-30T01:13:50.167Z,1015.76
2019-04-30T01:14:43.299Z,1015.74
2019-04-30T01:15:44.019Z,1015.77
2019-04-30T01:16:43.268Z,1015.78
2019-04-30T01:17:45.325Z,1015.76
2019-04-30T01:18:43.246Z,1015.74
2019-04-30T01:19:46.061Z,1015.72
2019-04-30T01:20:43.261Z,1015.73
2019-04-30T01:21:46.983Z,1015.76
2019-04-30T01:22:43.228Z,1015.77
2019-04-30T01:23:51.739Z,1015.76
2019-04-30T01:24:43.182Z,1015.74
2019-04-30T01:25:43.100Z,1015.74
2019-04-30T01:26:42.156Z,1015.70
2019-04-30T01:27:45.834Z,1015.70
2019-04-30T01:28:42.159Z,1015.75
2019-04-30T01:29:44.412Z,1015.74
2019-04-30T01:30:42.113Z,1015.74
2019-04-30T01:31:42.159Z,1015.74
2019-04-30T01:32:42.088Z,1015.74
2019-04-30T01:33:42.097Z,1015.72
2019-04-30T01:34:44.243Z,1015.70
2019-04-30T01:35:43.058Z,1015.70
2019-04-30T01:36:43.466Z,1015.73
2019-04-30T01:37:43.072Z,1015.70
2019-04-30T01:38:44.747Z,1015.73
2019-04-30T01:39:43.020Z,1015.71
2019-04-30T01:40:42.904Z,1015.69
2019-04-30T01:41:42.174Z,1015.71
2019-04-30T01:42:47.942Z,1015.72
2019-04-30T01:43:42.981Z,1015.72
2019-04-30T01:44:43.513Z,1015.76
2019-04-30T01:45:42.949Z,1015.76
2019-04-30T01:46:43.246Z,1015.76
2019-04-30T01:47:42.938Z,1015.77
2019-04-30T01:48:43.742Z,1015.79
2019-04-30T01:49:44.863Z,1015.76
2019-04-30T01:50:42.212Z,1015.76
2019-04-30T01:51:41.905Z,1015.80
2019-04-30T01:52:41.864Z,1015.76
2019-04-30T01:53:43.587Z,1015.80
2019-04-30T01:54:41.844Z,1015.74
2019-04-30T01:55:41.833Z,1015.76
2019-04-30T01:56:41.857Z,1015.81
2019-04-30T01:57:41.811Z,1015.77
2019-04-30T01:58:41.801Z,1015.79
2019-04-30T01:59:41.784Z,1015.74
2019-04-30T02:00:41.774Z,1015.81
2019-04-30T02:01:41.794Z,1015.80
2019-04-30T02:02:41.759Z,1015.79
2019-04-30T02:03:41.741Z,1015.79
2019-04-30T02:04:41.737Z,1015.79
2019-04-30T02:05:41.722Z,1015.80
2019-04-30T02:06:41.733Z,1015.76
2019-04-30T02:07:41.701Z,1015.75
2019-04-30T02:08:41.695Z,1015.79
2019-04-30T02:09:41.685Z,1015.78
2019-04-30T02:10:41.666Z,1015.78
2019-04-30T02:11:41.707Z,1015.76
2019-04-30T02:12:41.649Z,1015.73
2019-04-30T02:13:41.647Z,1015.74
2019-04-30T02:14:41.621Z,1015.71
2019-04-30T02:15:41.612Z,1015.72
2019-04-30T02:16:41.598Z,1015.71
2019-04-30T02:17:41.610Z,1015.72
2019-04-30T02:18:41.574Z,1015.70
2019-04-30T02:19:41.563Z,1015.70
2019-04-30T02:20:41.551Z,1015.67
2019-04-30T02:21:41.540Z,1015.69
2019-04-30T02:22:41.559Z,1015.68
2019-04-30T02:23:41.536Z,1015.66
2019-04-30T02:24:41.518Z,1015.67
2019-04-30T02:25:41.494Z,1015.66
2019-04-30T02:26:41.485Z,1015.67
2019-04-30T02:27:41.515Z,1015.68
2019-04-30T02:28:41.464Z,1015.66
2019-04-30T02:29:41.457Z,1015.64
2019-04-30T02:30:41.446Z,1015.61
2019-04-30T02:31:41.431Z,1015.62
2019-04-30T02:32:41.452Z,1015.58
2019-04-30T02:33:41.433Z,1015.58
2019-04-30T02:34:44.269Z,1015.59
2019-04-30T02:35:41.398Z,1015.62
2019-04-30T02:36:41.394Z,1015.56
2019-04-30T02:37:43.552Z,1015.54
2019-04-30T02:38:41.379Z,1015.56
2019-04-30T02:39:41.348Z,1015.64
2019-04-30T02:40:42.673Z,1015.65
2019-04-30T02:41:41.577Z,1015.64
2019-04-30T02:42:41.313Z,1015.59
2019-04-30T02:43:41.333Z,1015.60
2019-04-30T02:44:41.287Z,1015.58
2019-04-30T02:45:41.275Z,1015.64
2019-04-30T02:46:41.266Z,1015.60
2019-04-30T02:47:41.253Z,1015.67
2019-04-30T02:48:41.324Z,1015.62
2019-04-30T02:49:41.236Z,1015.61
2019-04-30T02:50:41.242Z,1015.60
2019-04-30T02:51:41.205Z,1015.69
2019-04-30T02:52:41.199Z,1015.65
2019-04-30T02:53:41.210Z,1015.64
2019-04-30T02:54:41.174Z,1015.67
2019-04-30T02:55:41.160Z,1015.70
2019-04-30T02:56:41.148Z,1015.69
2019-04-30T02:57:41.137Z,1015.66
2019-04-30T02:58:41.187Z,1015.72
2019-04-30T02:59:41.116Z,1015.71
2019-04-30T03:00:41.114Z,1015.72
2019-04-30T03:01:41.097Z,1015.71
2019-04-30T03:02:41.099Z,1015.67
2019-04-30T03:03:42.647Z,1015.69
2019-04-30T03:04:41.065Z,1015.69
2019-04-30T03:05:41.050Z,1015.67
2019-04-30T03:06:41.042Z,1015.71
2019-04-30T03:07:41.081Z,1015.67
2019-04-30T03:08:41.047Z,1015.68
2019-04-30T03:09:41.004Z,1015.66
2019-04-30T03:10:41.006Z,1015.67
2019-04-30T03:11:41.196Z,1015.65
2019-04-30T03:12:40.971Z,1015.66
2019-04-30T03:13:42.843Z,1015.68
2019-04-30T03:14:40.972Z,1015.68
2019-04-30T03:15:40.943Z,1015.69
2019-04-30T03:16:40.925Z,1015.68
2019-04-30T03:17:40.922Z,1015.67
2019-04-30T03:18:40.929Z,1015.67
2019-04-30T03:19:40.923Z,1015.62
2019-04-30T03:20:40.886Z,1015.58
2019-04-30T03:21:40.875Z,1015.57
2019-04-30T03:22:40.857Z,1015.49
2019-04-30T03:23:40.874Z,1015.50
2019-04-30T03:24:42.762Z,1015.50
2019-04-30T03:25:40.839Z,1015.52
2019-04-30T03:26:40.814Z,1015.48
2019-04-30T03:27:42.569Z,1015.49
2019-04-30T03:28:40.795Z,1015.49
2019-04-30T03:29:40.892Z,1015.52
2019-04-30T03:30:42.161Z,1015.52
2019-04-30T03:31:43.840Z,1015.53
2019-04-30T03:32:42.954Z,1015.58
2019-04-30T03:33:42.416Z,1015.51
2019-04-30T03:34:42.271Z,1015.54
2019-04-30T03:35:46.730Z,1015.52
2019-04-30T03:36:41.704Z,1015.55
2019-04-30T03:37:40.818Z,1015.51
2019-04-30T03:38:42.766Z,1015.50
2019-04-30T03:39:40.700Z,1015.50
2019-04-30T03:40:40.663Z,1015.48
2019-04-30T03:41:41.591Z,1015.47
2019-04-30T03:42:40.636Z,1015.49
2019-04-30T03:43:40.623Z,1015.48
2019-04-30T03:44:40.644Z,1015.45
2019-04-30T03:45:40.612Z,1015.48
2019-04-30T03:46:40.665Z,1015.45
2019-04-30T03:47:43.262Z,1015.44
2019-04-30T03:48:40.574Z,1015.45
2019-04-30T03:49:40.586Z,1015.44
2019-04-30T03:50:50.273Z,1015.40
2019-04-30T03:51:41.567Z,1015.36
2019-04-30T03:52:40.527Z,1015.42
2019-04-30T03:53:42.679Z,1015.44
2019-04-30T03:54:40.992Z,1015.42
2019-04-30T03:56:41.639Z,1015.47
2019-04-30T03:57:40.475Z,1015.42
2019-04-30T03:58:40.456Z,1015.44
2019-04-30T03:59:40.444Z,1015.45
2019-04-30T04:00:42.545Z,1015.46
2019-04-30T04:01:40.424Z,1015.44
2019-04-30T04:02:40.821Z,1015.51
2019-04-30T04:03:42.287Z,1015.48
2019-04-30T04:04:40.405Z,1015.47
2019-04-30T04:05:40.412Z,1015.52
2019-04-30T04:06:40.375Z,1015.48
2019-04-30T04:07:40.364Z,1015.48
2019-04-30T04:08:43.206Z,1015.47
2019-04-30T04:10:01.368Z,1015.42
2019-04-30T04:10:40.528Z,1015.46
2019-04-30T04:11:40.356Z,1015.48
2019-04-30T04:12:40.330Z,1015.47
2019-04-30T04:13:40.292Z,1015.45
2019-04-30T04:14:40.282Z,1015.51
2019-04-30T04:15:40.345Z,1015.50
2019-04-30T04:16:41.128Z,1015.50
2019-04-30T04:17:40.248Z,1015.52
2019-04-30T04:18:40.427Z,1015.54
2019-04-30T04:19:40.232Z,1015.54
2019-04-30T04:20:42.832Z,1015.55
2019-04-30T04:21:40.237Z,1015.57
2019-04-30T04:22:40.473Z,1015.57
2019-04-30T04:23:40.179Z,1015.61
2019-04-30T04:24:40.325Z,1015.60
2019-04-30T04:25:40.211Z,1015.59
2019-04-30T04:26:43.388Z,1015.63
2019-04-30T04:27:40.136Z,1015.62
2019-04-30T04:28:43.282Z,1015.66
2019-04-30T04:29:40.417Z,1015.61
2019-04-30T04:30:42.978Z,1015.61
2019-04-30T04:31:40.119Z,1015.61
2019-04-30T04:32:40.869Z,1015.56
2019-04-30T04:33:40.086Z,1015.60
2019-04-30T04:34:40.177Z,1015.61
2019-04-30T04:35:40.061Z,1015.60
2019-04-30T04:36:43.422Z,1015.59
2019-04-30T04:37:40.063Z,1015.58
2019-04-30T04:38:40.443Z,1015.59
2019-04-30T04:39:42.138Z,1015.60
2019-04-30T04:40:40.186Z,1015.62
2019-04-30T04:41:40.079Z,1015.59
2019-04-30T04:42:40.025Z,1015.63
2019-04-30T04:43:40.285Z,1015.63
2019-04-30T04:44:40.080Z,1015.62
2019-04-30T04:45:43.699Z,1015.60
2019-04-30T04:46:40.279Z,1015.63
2019-04-30T04:47:40.394Z,1015.62
2019-04-30T04:48:40.014Z,1015.67
2019-04-30T04:49:39.916Z,1015.68
2019-04-30T04:50:40.204Z,1015.69
2019-04-30T04:51:42.346Z,1015.65
2019-04-30T04:52:39.902Z,1015.68
2019-04-30T04:53:40.312Z,1015.67
2019-04-30T04:54:40.047Z,1015.68
2019-04-30T04:55:40.158Z,1015.72
2019-04-30T04:56:40.079Z,1015.69
2019-04-30T04:57:40.246Z,1015.74
2019-04-30T04:58:40.300Z,1015.75
2019-04-30T04:59:42.512Z,1015.74
2019-04-30T05:00:39.799Z,1015.76
2019-04-30T05:01:39.785Z,1015.77
2019-04-30T05:02:39.880Z,1015.76
2019-04-30T05:03:40.037Z,1015.77
2019-04-30T05:04:40.147Z,1015.81
2019-04-30T05:05:39.915Z,1015.78
2019-04-30T05:06:39.713Z,1015.79
2019-04-30T05:07:40.117Z,1015.81
2019-04-30T05:08:39.729Z,1015.83
2019-04-30T05:09:39.741Z,1015.83
2019-04-30T05:10:39.660Z,1015.79
2019-04-30T05:11:39.679Z,1015.84
2019-04-30T05:12:39.985Z,1015.84
2019-04-30T05:13:39.647Z,1015.85
2019-04-30T05:14:39.617Z,1015.87
2019-04-30T05:15:39.609Z,1015.87
2019-04-30T05:16:39.598Z,1015.87
2019-04-30T05:17:39.962Z,1015.88
2019-04-30T05:18:39.604Z,1015.88
2019-04-30T05:19:39.576Z,1015.85
2019-04-30T05:20:41.587Z,1015.91
2019-04-30T05:21:42.742Z,1015.88
2019-04-30T05:22:40.590Z,1015.94
2019-04-30T05:23:42.470Z,1015.86
2019-04-30T05:24:40.857Z,1015.87
2019-04-30T05:25:39.492Z,1015.90
2019-04-30T05:26:39.506Z,1015.89
2019-04-30T05:27:39.507Z,1015.90
2019-04-30T05:28:39.498Z,1015.86
2019-04-30T05:29:39.448Z,1015.89
2019-04-30T05:30:39.450Z,1015.85
2019-04-30T05:31:39.429Z,1015.88
2019-04-30T05:32:39.417Z,1015.86
2019-04-30T05:33:39.435Z,1015.84
2019-04-30T05:34:39.397Z,1015.87
2019-04-30T05:35:39.384Z,1015.85
2019-04-30T05:36:39.372Z,1015.89
2019-04-30T05:37:39.363Z,1015.85
2019-04-30T05:38:39.382Z,1015.88
2019-04-30T05:39:39.338Z,1015.87
2019-04-30T05:40:39.914Z,1015.89
2019-04-30T05:41:41.106Z,1015.87
2019-04-30T05:42:39.313Z,1015.91
2019-04-30T05:43:39.334Z,1015.91
2019-04-30T05:44:39.598Z,1015.93
2019-04-30T05:45:39.278Z,1015.95
2019-04-30T05:46:39.798Z,1015.97
2019-04-30T05:47:39.261Z,1015.92
2019-04-30T05:48:39.769Z,1015.95
2019-04-30T05:49:39.233Z,1015.95
2019-04-30T05:50:39.243Z,1015.95
2019-04-30T05:51:39.207Z,1015.94
2019-04-30T05:52:39.901Z,1015.93
2019-04-30T05:53:39.493Z,1016.00
2019-04-30T05:54:39.172Z,1015.96
2019-04-30T05:55:39.600Z,1015.98
2019-04-30T05:56:39.885Z,1015.98
2019-04-30T05:57:52.547Z,1015.99
2019-04-30T05:58:40.172Z,1015.99
2019-04-30T05:59:39.120Z,1016.01
2019-04-30T06:00:39.958Z,1015.96
2019-04-30T06:05:31.295Z,1016.03
2019-04-30T06:06:33.566Z,1016.03
2019-04-30T06:07:31.147Z,1015.99
2019-04-30T06:08:31.173Z,1016.03
2019-04-30T06:09:33.927Z,1016.00
2019-04-30T06:10:31.198Z,1016.02
2019-04-30T06:11:31.097Z,1015.98
2019-04-30T06:12:31.091Z,1015.98
2019-04-30T06:13:32.026Z,1015.92
2019-04-30T06:14:31.105Z,1015.95
2019-04-30T06:15:31.059Z,1015.97
2019-04-30T06:16:31.049Z,1015.98
2019-04-30T06:17:31.038Z,1016.02
2019-04-30T06:18:31.019Z,1016.01
2019-04-30T06:19:31.049Z,1016.01
2019-04-30T06:20:31.002Z,1016.04
2019-04-30T06:21:30.997Z,1016.04
2019-04-30T06:22:30.979Z,1016.02
2019-04-30T06:23:30.972Z,1016.02
2019-04-30T06:24:31.000Z,1016.06
2019-04-30T06:25:41.255Z,1016.07
2019-04-30T06:26:31.938Z,1016.06
2019-04-30T06:27:30.943Z,1016.03
2019-04-30T06:28:30.922Z,1016.05
2019-04-30T06:29:30.897Z,1016.06
2019-04-30T06:30:30.918Z,1016.06
2019-04-30T06:31:34.715Z,1016.09
2019-04-30T06:32:31.869Z,1016.09
2019-04-30T06:33:30.860Z,1016.05
2019-04-30T06:34:30.878Z,1016.08
2019-04-30T06:35:30.836Z,1016.11
2019-04-30T06:36:30.829Z,1016.05
2019-04-30T06:37:31.619Z,1016.03
2019-04-30T06:38:30.802Z,1016.10
2019-04-30T06:39:30.960Z,1016.12
2019-04-30T06:40:30.805Z,1016.11
2019-04-30T06:41:30.765Z,1016.14
2019-04-30T06:42:30.756Z,1016.10
2019-04-30T06:43:30.834Z,1016.09
2019-04-30T06:44:37.495Z,1016.05
2019-04-30T06:45:31.871Z,1016.06
2019-04-30T06:46:30.711Z,1016.10
2019-04-30T06:47:33.037Z,1015.99
2019-04-30T06:48:30.685Z,1016.03
2019-04-30T06:49:30.680Z,1016.05
2019-04-30T06:50:30.688Z,1016.11
2019-04-30T06:51:30.890Z,1016.14
2019-04-30T06:52:30.651Z,1016.10
2019-04-30T06:53:30.642Z,1016.14
2019-04-30T06:54:30.625Z,1016.13
2019-04-30T06:55:30.991Z,1016.13
2019-04-30T06:56:30.599Z,1016.15
2019-04-30T06:57:30.585Z,1016.12
2019-04-30T06:58:30.580Z,1016.12
2019-04-30T06:59:30.566Z,1016.11
2019-04-30T07:00:35.076Z,1016.14
2019-04-30T07:01:38.897Z,1016.17
2019-04-30T07:02:30.944Z,1016.15
2019-04-30T07:03:30.517Z,1016.15
2019-04-30T07:04:30.513Z,1016.18
2019-04-30T07:05:30.525Z,1016.16
2019-04-30T07:06:36.722Z,1016.14
2019-04-30T07:07:38.721Z,1016.17
2019-04-30T07:08:39.605Z,1016.10
2019-04-30T07:09:36.383Z,1016.15
2019-04-30T07:10:31.474Z,1016.13
2019-04-30T07:11:30.441Z,1016.10
2019-04-30T07:12:31.500Z,1016.14
2019-04-30T07:13:30.409Z,1016.14
2019-04-30T07:14:30.395Z,1016.11
2019-04-30T07:15:30.409Z,1016.14
2019-04-30T07:16:30.402Z,1016.11
2019-04-30T07:17:30.362Z,1016.15
2019-04-30T07:18:30.351Z,1016.11
2019-04-30T07:19:38.247Z,1016.14
2019-04-30T07:20:34.059Z,1016.15
2019-04-30T07:21:31.597Z,1016.16
2019-04-30T07:22:39.955Z,1016.13
2019-04-30T07:23:31.293Z,1016.13
2019-04-30T07:24:30.333Z,1016.17
2019-04-30T07:25:30.292Z,1016.16
2019-04-30T07:26:30.284Z,1016.14
2019-04-30T07:27:32.324Z,1016.17
2019-04-30T07:28:43.326Z,1016.21
2019-04-30T07:29:31.227Z,1016.18
2019-04-30T07:30:30.909Z,1016.20
2019-04-30T07:31:30.228Z,1016.14
2019-04-30T07:32:30.209Z,1016.14
2019-04-30T07:33:30.176Z,1016.19
2019-04-30T07:34:36.580Z,1016.21
2019-04-30T07:35:31.158Z,1016.20
2019-04-30T07:36:45.786Z,1016.19
2019-04-30T07:37:31.147Z,1016.15
2019-04-30T07:38:30.124Z,1016.22
2019-04-30T07:39:33.323Z,1016.18
2019-04-30T07:40:30.112Z,1016.23
2019-04-30T07:41:31.195Z,1016.16
2019-04-30T07:42:30.088Z,1016.15
2019-04-30T07:43:30.067Z,1016.17
2019-04-30T07:44:36.235Z,1016.15
2019-04-30T07:45:32.172Z,1016.19
2019-04-30T07:46:34.754Z,1016.19
2019-04-30T07:47:30.053Z,1016.17
2019-04-30T07:48:30.031Z,1016.20
2019-04-30T07:49:46.535Z,1016.23
2019-04-30T07:50:31.957Z,1016.24
2019-04-30T07:51:32.059Z,1016.21
2019-04-30T07:52:34.288Z,1016.26
2019-04-30T07:53:30.962Z,1016.25
2019-04-30T07:54:30.166Z,1016.23
2019-04-30T07:55:29.930Z,1016.22
2019-04-30T07:56:37.257Z,1016.31
2019-04-30T07:57:32.359Z,1016.30
2019-04-30T07:58:29.979Z,1016.29
2019-04-30T07:59:30.249Z,1016.33
2019-04-30T08:00:31.274Z,1016.34
2019-04-30T08:01:29.861Z,1016.29
2019-04-30T08:02:36.092Z,1016.30
2019-04-30T08:03:31.151Z,1016.29
2019-04-30T08:04:29.848Z,1016.31
2019-04-30T08:05:29.997Z,1016.30
2019-04-30T08:06:31.126Z,1016.30
2019-04-30T08:07:30.254Z,1016.29
2019-04-30T08:08:30.465Z,1016.31
2019-04-30T08:09:39.215Z,1016.32
2019-04-30T08:10:30.768Z,1016.30
2019-04-30T08:11:34.466Z,1016.29
2019-04-30T08:12:35.047Z,1016.30
2019-04-30T08:13:32.826Z,1016.33
2019-04-30T08:14:29.723Z,1016.35
2019-04-30T08:15:29.706Z,1016.35
2019-04-30T08:16:29.698Z,1016.34
2019-04-30T08:17:29.721Z,1016.34
2019-04-30T08:18:29.679Z,1016.33
2019-04-30T08:19:29.660Z,1016.37
2019-04-30T08:20:29.686Z,1016.33
2019-04-30T08:21:29.643Z,1016.35
2019-04-30T08:22:29.806Z,1016.34
2019-04-30T08:23:34.847Z,1016.33
2019-04-30T08:24:30.597Z,1016.31
2019-04-30T08:25:29.587Z,1016.30
2019-04-30T08:26:29.580Z,1016.31
2019-04-30T08:27:29.710Z,1016.35
2019-04-30T08:28:30.442Z,1016.34
2019-04-30T08:29:29.591Z,1016.37
2019-04-30T08:30:30.120Z,1016.37
2019-04-30T08:31:29.535Z,1016.39
2019-04-30T08:32:29.536Z,1016.39
2019-04-30T08:33:29.528Z,1016.42
2019-04-30T08:34:29.533Z,1016.43
2019-04-30T08:35:29.707Z,1016.42
2019-04-30T08:36:29.934Z,1016.45
2019-04-30T08:37:29.479Z,1016.40
2019-04-30T08:38:30.031Z,1016.43
2019-04-30T08:39:31.795Z,1016.46
2019-04-30T08:40:29.787Z,1016.41
2019-04-30T08:41:29.525Z,1016.39
2019-04-30T08:42:33.883Z,1016.42
2019-04-30T08:43:30.550Z,1016.46
2019-04-30T08:44:29.690Z,1016.49
2019-04-30T08:45:33.129Z,1016.46
2019-04-30T08:46:30.368Z,1016.49
2019-04-30T08:47:29.357Z,1016.42
2019-04-30T08:48:43.028Z,1016.44
2019-04-30T08:49:31.082Z,1016.44
2019-04-30T08:50:30.034Z,1016.45
2019-04-30T08:51:31.199Z,1016.44
2019-04-30T08:52:30.481Z,1016.45
2019-04-30T08:53:33.230Z,1016.48
2019-04-30T08:54:29.565Z,1016.45
2019-04-30T08:55:30.437Z,1016.45
2019-04-30T08:56:29.734Z,1016.40
2019-04-30T08:57:29.442Z,1016.42
2019-04-30T08:58:29.370Z,1016.43
2019-04-30T08:59:29.573Z,1016.40
2019-04-30T09:00:29.735Z,1016.41
2019-04-30T09:01:29.584Z,1016.39
2019-04-30T09:02:29.250Z,1016.40
2019-04-30T09:03:29.670Z,1016.39
2019-04-30T09:04:29.235Z,1016.37
2019-04-30T09:05:30.624Z,1016.31
2019-04-30T09:06:29.805Z,1016.33
2019-04-30T09:07:29.738Z,1016.31
2019-04-30T09:08:29.506Z,1016.30
2019-04-30T09:09:29.635Z,1016.28
2019-04-30T09:10:29.487Z,1016.25
2019-04-30T09:11:35.516Z,1016.26
2019-04-30T09:12:30.086Z,1016.27
2019-04-30T09:13:29.076Z,1016.26
2019-04-30T09:14:29.749Z,1016.26
2019-04-30T09:15:29.194Z,1016.25
2019-04-30T09:16:29.571Z,1016.23
2019-04-30T09:17:29.692Z,1016.26
2019-04-30T09:18:29.270Z,1016.29
2019-04-30T09:19:29.833Z,1016.25
2019-04-30T09:20:29.232Z,1016.19
2019-04-30T09:21:29.989Z,1016.25
2019-04-30T09:22:29.385Z,1016.22
2019-04-30T09:23:43.030Z,1016.25
2019-04-30T09:24:31.070Z,1016.26
2019-04-30T09:25:28.929Z,1016.22
2019-04-30T09:26:29.206Z,1016.22
2019-04-30T09:27:29.659Z,1016.20
2019-04-30T09:28:29.440Z,1016.25
2019-04-30T09:29:29.371Z,1016.26
2019-04-30T09:30:29.901Z,1016.22
2019-04-30T09:31:29.625Z,1016.23
2019-04-30T09:32:29.182Z,1016.25
2019-04-30T09:33:29.422Z,1016.28
2019-04-30T09:34:29.236Z,1016.26
2019-04-30T09:35:31.766Z,1016.27
2019-04-30T09:36:29.366Z,1016.26
2019-04-30T09:37:30.560Z,1016.22
2019-04-30T09:38:29.104Z,1016.27
2019-04-30T09:39:29.578Z,1016.26
2019-04-30T09:40:32.187Z,1016.19
2019-04-30T09:41:28.903Z,1016.20
2019-04-30T09:42:29.623Z,1016.21
2019-04-30T09:43:28.770Z,1016.19
2019-04-30T09:44:30.743Z,1016.19
2019-04-30T09:45:28.693Z,1016.18
2019-04-30T09:46:29.912Z,1016.22
2019-04-30T09:47:29.581Z,1016.19
2019-04-30T09:48:30.508Z,1016.12
2019-04-30T09:49:29.425Z,1016.20
2019-04-30T09:50:29.244Z,1016.21
2019-04-30T09:51:30.501Z,1016.16
2019-04-30T09:52:30.704Z,1016.16
2019-04-30T09:53:29.803Z,1016.12
2019-04-30T09:54:29.417Z,1016.13
2019-04-30T09:55:29.176Z,1016.11
2019-04-30T09:56:29.433Z,1016.11
2019-04-30T09:57:29.040Z,1016.10
2019-04-30T09:58:29.943Z,1016.10
2019-04-30T09:59:29.146Z,1016.06
2019-04-30T10:00:29.539Z,1016.08
2019-04-30T10:01:28.518Z,1016.02
2019-04-30T10:02:29.105Z,1016.00
2019-04-30T10:03:30.698Z,1015.99
2019-04-30T10:04:30.342Z,1016.00
2019-04-30T10:05:29.231Z,1016.04
2019-04-30T10:06:39.075Z,1016.02
2019-04-30T10:07:29.457Z,1016.01
2019-04-30T10:08:30.745Z,1016.02
2019-04-30T10:09:29.317Z,1015.97
2019-04-30T10:10:28.897Z,1015.97
2019-04-30T10:11:28.422Z,1015.92
2019-04-30T10:12:29.400Z,1015.91
2019-04-30T10:13:28.387Z,1015.92
2019-04-30T10:14:28.392Z,1015.88
2019-04-30T10:15:28.928Z,1015.88
2019-04-30T10:16:29.650Z,1015.89
2019-04-30T10:17:28.332Z,1015.88
2019-04-30T10:18:28.338Z,1015.86
2019-04-30T10:19:29.268Z,1015.83
2019-04-30T10:20:28.323Z,1015.82
2019-04-30T10:21:29.006Z,1015.79
2019-04-30T10:22:28.295Z,1015.81
2019-04-30T10:23:30.222Z,1015.74
2019-04-30T10:24:29.467Z,1015.70
2019-04-30T10:25:28.241Z,1015.73
2019-04-30T10:26:28.280Z,1015.72
2019-04-30T10:27:29.347Z,1015.76
2019-04-30T10:28:28.227Z,1015.73
2019-04-30T10:29:28.192Z,1015.69
2019-04-30T10:30:29.218Z,1015.75
2019-04-30T10:31:29.320Z,1015.72
2019-04-30T10:32:30.012Z,1015.74
2019-04-30T10:33:28.692Z,1015.73
2019-04-30T10:34:28.143Z,1015.71
2019-04-30T10:35:28.646Z,1015.70
2019-04-30T10:36:29.555Z,1015.69
2019-04-30T10:37:28.725Z,1015.71
2019-04-30T10:38:29.358Z,1015.73
2019-04-30T10:39:29.700Z,1015.74
2019-04-30T10:40:28.751Z,1015.70
2019-04-30T10:41:28.749Z,1015.73
2019-04-30T10:42:28.867Z,1015.67
2019-04-30T10:43:29.393Z,1015.71
2019-04-30T10:44:29.851Z,1015.69
2019-04-30T10:45:28.814Z,1015.70
2019-04-30T10:46:28.028Z,1015.71
2019-04-30T10:47:29.380Z,1015.66
2019-04-30T10:48:27.982Z,1015.63
2019-04-30T10:49:29.192Z,1015.64
2019-04-30T10:50:27.965Z,1015.64
2019-04-30T10:51:28.824Z,1015.66
2019-04-30T10:52:29.252Z,1015.66
2019-04-30T10:53:27.925Z,1015.61
2019-04-30T10:54:28.983Z,1015.60
2019-04-30T10:55:28.711Z,1015.60
2019-04-30T10:56:29.154Z,1015.57
2019-04-30T10:57:28.539Z,1015.57
2019-04-30T10:58:27.876Z,1015.55
2019-04-30T10:59:27.875Z,1015.52
2019-04-30T11:00:28.647Z,1015.53
2019-04-30T11:01:29.203Z,1015.48
2019-04-30T11:02:28.819Z,1015.52
2019-04-30T11:03:29.143Z,1015.54
2019-04-30T11:04:27.805Z,1015.48
2019-04-30T11:05:29.263Z,1015.49
2019-04-30T11:06:27.800Z,1015.52
2019-04-30T11:07:28.851Z,1015.54
2019-04-30T11:08:27.763Z,1015.53
2019-04-30T11:09:30.659Z,1015.56
2019-04-30T11:10:28.644Z,1015.55
2019-04-30T11:11:28.290Z,1015.54
2019-04-30T11:12:29.222Z,1015.50
2019-04-30T11:13:27.708Z,1015.48
2019-04-30T11:14:27.694Z,1015.48
2019-04-30T11:15:29.191Z,1015.44
2019-04-30T11:16:29.686Z,1015.46
2019-04-30T11:17:29.713Z,1015.46
2019-04-30T11:18:27.870Z,1015.46
2019-04-30T11:19:29.239Z,1015.36
2019-04-30T11:20:29.684Z,1015.43
2019-04-30T11:21:29.395Z,1015.43
2019-04-30T11:22:27.845Z,1015.43
2019-04-30T11:23:29.420Z,1015.38
2019-04-30T11:24:36.559Z,1015.37
2019-04-30T11:25:30.863Z,1015.35
2019-04-30T11:26:31.137Z,1015.31
2019-04-30T11:27:30.063Z,1015.30
2019-04-30T11:28:28.508Z,1015.28
2019-04-30T11:29:30.581Z,1015.29
2019-04-30T11:30:29.512Z,1015.26
2019-04-30T11:31:27.687Z,1015.26
2019-04-30T11:32:27.771Z,1015.18
2019-04-30T11:33:27.725Z,1015.21
2019-04-30T11:34:28.257Z,1015.25
2019-04-30T11:35:29.523Z,1015.21
2019-04-30T11:36:29.036Z,1015.22
2019-04-30T11:37:27.458Z,1015.19
2019-04-30T11:38:27.419Z,1015.19
2019-04-30T11:39:27.413Z,1015.19
2019-04-30T11:40:34.486Z,1015.20
2019-04-30T11:41:32.859Z,1015.18
2019-04-30T11:42:27.398Z,1015.15
2019-04-30T11:43:29.403Z,1015.16
2019-04-30T11:44:31.317Z,1015.16
2019-04-30T11:45:29.295Z,1015.15
2019-04-30T11:46:28.695Z,1015.16
2019-04-30T11:47:27.316Z,1015.18
2019-04-30T11:48:28.911Z,1015.18
2019-04-30T11:49:27.324Z,1015.20
2019-04-30T11:50:30.009Z,1015.15
2019-04-30T11:51:29.377Z,1015.09
2019-04-30T11:52:27.274Z,1015.06
2019-04-30T11:53:28.824Z,1015.07
2019-04-30T11:54:27.268Z,1015.03
2019-04-30T11:55:29.107Z,1015.07
2019-04-30T11:56:27.238Z,1014.99
2019-04-30T11:57:27.209Z,1015.04
2019-04-30T11:58:30.355Z,1015.00
2019-04-30T11:59:27.225Z,1015.00
2019-04-30T12:00:27.230Z,1014.93
2019-04-30T12:01:27.214Z,1014.92
2019-04-30T12:02:29.188Z,1014.91
2019-04-30T12:03:30.095Z,1014.93
2019-04-30T12:04:29.692Z,1014.94
2019-04-30T12:05:28.910Z,1014.93
2019-04-30T12:06:28.557Z,1014.95
2019-04-30T12:07:27.105Z,1014.89
2019-04-30T12:08:29.250Z,1014.91
2019-04-30T12:09:28.507Z,1014.91
2019-04-30T12:10:27.065Z,1014.87